• Join FlightAware (Why Join?)
  • Login
  • US Flag 
12:09PM EDT


 

Airport Tracker/Info


-or-


 

Live Flight TrackerFlight Track Log ✈ N78ML ✈ 13-May-2013 ✈ KSBA - KTRK

Flight Track Log - Related Links

Times and Time Zones

All times are in EDT time to prevent confusion due to time zone crossing. See the N78ML flight status page for this flight to view local times or setup timezone preferences in your user account.

Time Position Orientation Groundspeed Altitude Reporting Facility
EDT Latitude Longitude Course Direction KTS MPH feet Rate Location/Type
02:31PM 34.4031 -119.8350 175° South 93 107 700  Level Los Angeles Center
02:32PM 34.3836 -119.8328 175° South 105 121 1,100 720 Climbing Los Angeles Center
02:33PM 34.3767 -119.8750 259° West 116 133 2,100 780 Climbing Los Angeles Center
02:34PM 34.3717 -119.9056 259° West 103 119 2,800 780 Climbing Los Angeles Center
02:34PM 34.3711 -119.9158 266° West 98 113 3,200 660 Climbing Los Angeles Center
02:35PM 34.3719 -119.9381 273° West 100 115 3,500 360 Climbing Los Angeles Center
02:36PM 34.4103 -119.9356 North 117 135 3,900 480 Climbing Los Angeles Center
02:37PM 34.4447 -119.9386 356° North 123 142 4,500 480 Climbing Los Angeles Center
02:38PM 34.4792 -119.9425 355° North 124 143 4,900 420 Climbing Los Angeles Center
02:39PM 34.5214 -119.9475 354° North 126 145 5,400 480 Climbing Los Angeles Center
02:40PM 34.5550 -119.9503 356° North 123 142 5,900 480 Climbing Los Angeles Center
02:41PM 34.5900 -119.9539 355° North 124 143 6,400 480 Climbing Los Angeles Center
02:42PM 34.6286 -119.9567 357° North 126 145 6,900 420 Climbing Los Angeles Center
02:43PM 34.6644 -119.9614 354° North 129 148 7,300 360 Climbing Los Angeles Center
02:44PM 34.7022 -119.9631 358° North 133 153 7,700 480 Climbing Los Angeles Center
02:45PM 34.7375 -119.9667 355° North 129 148 8,300 480 Climbing Los Angeles Center
02:46PM 34.7750 -119.9714 354° North 133 153 8,700 360 Climbing Los Angeles Center
02:48PM 34.8231 -119.9753 356° North 142 163 9,200 420 Climbing Los Angeles Center
02:49PM 34.8736 -119.9811 355° North 150 173 9,700 360 Climbing Los Angeles Center
02:50PM 34.9169 -119.9853 355° North 154 177 10,000 300 Climbing Los Angeles Center
02:51PM 34.9608 -119.9886 356° North 156 180 10,400 60 Climbing Los Angeles Center
02:52PM 35.0072 -119.9925 356° North 165 190 10,200 -60 Descending Los Angeles Center
02:53PM 35.0622 -119.9997 354° North 166 191 10,300  Climbing Los Angeles Center
02:54PM 35.1078 -120.0039 356° North 165 190 10,300 60 Level Los Angeles Center
02:55PM 35.1489 -120.0178 345° North 159 183 10,500  Climbing Los Angeles Center
02:56PM 35.1922 -120.0292 348° North 158 182 10,300  Descending Los Angeles Center
02:57PM 35.2344 -120.0400 348° North 157 181 10,500  Climbing Los Angeles Center
02:58PM 35.2875 -120.0522 349° North 161 185 10,400  Descending Los Angeles Center
02:59PM 35.3328 -120.0656 346° North 167 192 10,500  Climbing Los Angeles Center
03:00PM 35.3775 -120.0783 347° North 166 191 10,400 -120 Descending Los Angeles Center
03:00PM 35.3953 -120.0833 347° North 167 192 10,400 60 Level Oakland Center
03:01PM 35.4389 -120.0944 348° North 163 188 10,500  Climbing Oakland Center
03:02PM 35.4833 -120.1058 348° North 164 189 10,500 -60 Level Oakland Center
03:03PM 35.5281 -120.1189 347° North 167 192 10,400 -60 Descending Oakland Center
03:04PM 35.5736 -120.1278 351° North 168 193 10,400  Level Oakland Center
03:05PM 35.6186 -120.1339 354° North 165 190 10,400  Level Oakland Center
03:06PM 35.6636 -120.1444 349° North 166 191 10,400  Level Oakland Center
03:07PM 35.7181 -120.1528 353° North 166 191 10,400  Level Oakland Center
03:08PM 35.7642 -120.1603 352° North 167 192 10,500  Climbing Oakland Center
03:09PM 35.8106 -120.1683 352° North 169 194 10,500  Level Oakland Center
03:10PM 35.8567 -120.1772 351° North 169 194 10,500  Level Oakland Center
03:12PM 35.9033 -120.1817 356° North 169 194 10,500  Level Oakland Center
03:13PM 35.9478 -120.1892 352° North 165 190 10,500  Level Oakland Center
03:14PM 35.9925 -120.2003 349° North 164 189 10,500  Level Oakland Center
03:15PM 36.0378 -120.2011 359° North 168 193 10,500  Level Oakland Center
03:16PM 36.0839 -120.2042 357° North 164 189 10,500  Level Oakland Center
03:17PM 36.1397 -120.2075 357° North 169 194 10,500  Level Oakland Center
03:18PM 36.1864 -120.2106 357° North 168 193 10,500  Level Oakland Center
03:19PM 36.2317 -120.2144 356° North 166 191 10,500  Level Oakland Center
03:20PM 36.2772 -120.2167 358° North 164 189 10,500  Level Oakland Center
03:21PM 36.3239 -120.2194 357° North 167 192 10,500  Level Oakland Center
03:22PM 36.3692 -120.2231 356° North 164 189 10,500  Level Oakland Center
03:23PM 36.4150 -120.2272 356° North 165 190 10,500  Level Oakland Center
03:24PM 36.4608 -120.2300 357° North 165 190 10,500  Level Oakland Center
03:25PM 36.5156 -120.2342 356° North 164 189 10,500  Level Oakland Center
03:26PM 36.5619 -120.2375 357° North 166 191 10,500  Level Oakland Center
03:27PM 36.6069 -120.2408 357° North 162 186 10,500  Level Oakland Center
03:28PM 36.6531 -120.2450 356° North 167 192 10,500  Level Oakland Center
03:29PM 36.6972 -120.2472 358° North 160 184 10,500  Level Oakland Center
03:30PM 36.7422 -120.2500 357° North 161 185 10,500  Level Oakland Center
03:31PM 36.7861 -120.2547 355° North 160 184 10,500  Level Oakland Center
03:32PM 36.8358 -120.2578 357° North 159 183 10,500  Level Oakland Center
03:33PM 36.8786 -120.2608 357° North 161 185 10,500  Level Oakland Center
03:34PM 36.9236 -120.2650 356° North 162 186 10,500  Level Oakland Center
03:35PM 36.9681 -120.2681 357° North 160 184 10,500  Level Oakland Center
03:36PM 37.0119 -120.2714 357° North 158 182 10,500  Level Oakland Center
03:37PM 37.0669 -120.2764 356° North 166 191 10,500  Level Oakland Center
03:38PM 37.1097 -120.2792 357° North 155 178 10,500  Level Oakland Center
03:39PM 37.1550 -120.2825 357° North 162 186 10,500  Level Oakland Center
03:40PM 37.1994 -120.2858 357° North 160 184 10,500  Level Oakland Center
03:41PM 37.2439 -120.2889 357° North 159 183 10,500  Level Oakland Center
03:42PM 37.2886 -120.2931 356° North 161 185 10,500  Level Oakland Center
03:43PM 37.3336 -120.2947 358° North 160 184 10,500  Level Oakland Center
03:44PM 37.3800 -120.2961 359° North 168 193 10,500  Level Oakland Center
03:45PM 37.4250 -120.2986 357° North 164 189 10,500  Level Oakland Center
03:46PM 37.4694 -120.3025 356° North 161 185 10,500  Level Oakland Center
03:47PM 37.5231 -120.3053 358° North 161 185 10,500  Level Oakland Center
03:48PM 37.5678 -120.3089 356° North 160 184 10,500  Level Oakland Center
03:49PM 37.6125 -120.3108 358° North 160 184 10,500  Level Oakland Center
03:50PM 37.6556 -120.3147 356° North 158 182 10,500  Level Oakland Center
03:51PM 37.6994 -120.3178 357° North 157 181 10,500  Level Oakland Center
03:52PM 37.7444 -120.3206 357° North 160 184 10,500  Level Oakland Center
03:53PM 37.7878 -120.3253 355° North 159 183 10,500  Level Oakland Center
03:54PM 37.8328 -120.3272 358° North 160 184 10,500  Level Oakland Center
03:55PM 37.8758 -120.3308 356° North 159 183 10,500  Level Oakland Center
03:56PM 37.9194 -120.3333 357° North 156 180 10,500  Level Oakland Center
03:58PM 37.9733 -120.3386 356° North 160 184 10,500  Level Oakland Center
03:59PM 38.0189 -120.3414 357° North 164 189 10,500  Level Oakland Center
04:00PM 38.0625 -120.3442 357° North 160 184 10,500  Level Oakland Center
04:01PM 38.1058 -120.3461 358° North 157 181 10,500  Level Oakland Center
04:02PM 38.1503 -120.3500 356° North 159 183 10,500  Level Oakland Center
04:03PM 38.1950 -120.3531 357° North 162 186 10,500  Level Oakland Center
04:04PM 38.2397 -120.3572 356° North 161 185 10,500  Level Oakland Center
04:05PM 38.2831 -120.3597 357° North 159 183 10,500  Level Oakland Center
04:06PM 38.3294 -120.3628 357° North 165 190 10,500  Level Oakland Center
04:07PM 38.3736 -120.3667 356° North 162 186 10,500  Level Oakland Center
04:08PM 38.4300 -120.3708 357° North 169 194 10,500  Level Oakland Center
04:09PM 38.4753 -120.3733 358° North 165 190 10,500  Level Oakland Center
04:10PM 38.5200 -120.3758 357° North 162 186 10,500  Level Oakland Center
04:11PM 38.5658 -120.3794 356° North 166 191 10,500  Level Oakland Center
04:12PM 38.6117 -120.3828 357° North 167 192 10,500 -60 Level Oakland Center
04:13PM 38.6581 -120.3867 356° North 167 192 10,400 -60 Descending Oakland Center
04:14PM 38.7031 -120.3908 356° North 165 190 10,400 -120 Level Oakland Center
04:15PM 38.7467 -120.3978 353° North 161 185 10,200 -120 Descending Oakland Center
04:16PM 38.7842 -120.3972 North 144 166 10,200  Level Oakland Center
04:17PM 38.8308 -120.3961 North 141 162 10,300  Climbing Oakland Center
04:18PM 38.8692 -120.4006 355° North 139 160 10,200  Descending Oakland Center
04:19PM 38.9075 -120.4047 355° North 139 160 10,300  Climbing Oakland Center
04:20PM 38.9456 -120.4064 358° North 138 159 10,300  Level Oakland Center
04:21PM 38.9842 -120.4086 357° North 138 159 10,300  Level Oakland Center
04:22PM 39.0267 -120.4114 357° North 150 173 10,300  Level Oakland Center
04:23PM 39.0669 -120.4142 357° North 146 168 10,300  Level Oakland Center
04:24PM 39.1083 -120.4158 358° North 148 170 10,300 -120 Level Oakland Center
04:25PM 39.1506 -120.4228 353° North 151 174 10,100 -240 Descending Oakland Center